createdAt,value
2023-03-06T00:02:15.759Z,2.08
2023-03-06T00:04:44.181Z,2.06
2023-03-06T00:07:15.011Z,2.07
2023-03-06T00:10:17.675Z,2.07
2023-03-06T00:12:48.060Z,2.05
2023-03-06T00:15:39.796Z,2.05
2023-03-06T00:18:09.165Z,2.05
2023-03-06T00:20:45.333Z,2.04
2023-03-06T00:23:13.984Z,2.02
2023-03-06T00:26:02.843Z,2.00
2023-03-06T00:28:31.705Z,1.99
2023-03-06T00:31:00.094Z,1.97
2023-03-06T00:33:28.680Z,1.96
2023-03-06T00:35:59.513Z,1.95
2023-03-06T00:38:47.791Z,1.94
2023-03-06T00:41:16.317Z,1.92
2023-03-06T00:43:44.716Z,1.91
2023-03-06T00:46:15.642Z,1.90
2023-03-06T00:49:04.484Z,1.88
2023-03-06T00:51:35.841Z,1.87
2023-03-06T00:54:14.003Z,1.85
2023-03-06T00:56:42.459Z,1.84
2023-03-06T00:59:32.579Z,1.82
2023-03-06T01:02:21.108Z,1.79
2023-03-06T01:04:58.361Z,1.76
2023-03-06T01:07:33.567Z,1.72
2023-03-06T01:10:02.607Z,1.68
2023-03-06T01:12:31.318Z,1.64
2023-03-06T01:15:20.417Z,1.60
2023-03-06T01:18:43.861Z,1.52
2023-03-06T01:21:12.887Z,1.48
2023-03-06T01:23:41.724Z,1.42
2023-03-06T01:26:30.473Z,1.36
2023-03-06T01:28:59.370Z,1.29
2023-03-06T01:31:53.194Z,1.22
2023-03-06T01:34:21.782Z,1.16
2023-03-06T01:37:00.319Z,1.09
2023-03-06T01:39:29.240Z,1.02
2023-03-06T01:41:58.293Z,0.96
2023-03-06T01:44:29.313Z,0.89
2023-03-06T01:47:00.615Z,0.81
2023-03-06T01:49:43.623Z,0.79
2023-03-06T01:52:40.407Z,0.71
2023-03-06T01:55:24.694Z,0.65
2023-03-06T01:58:06.708Z,0.59
2023-03-06T02:00:36.419Z,0.54
2023-03-06T02:03:11.609Z,0.51
2023-03-06T02:05:53.676Z,0.46
2023-03-06T02:08:29.645Z,0.44
2023-03-06T02:11:15.353Z,0.47
2023-03-06T02:13:45.699Z,0.48
2023-03-06T02:16:16.786Z,0.46
2023-03-06T02:19:44.562Z,0.44
2023-03-06T02:22:13.241Z,0.41
2023-03-06T02:25:01.933Z,0.39
2023-03-06T02:27:32.737Z,0.36
2023-03-06T02:30:10.314Z,0.33
2023-03-06T02:32:46.090Z,0.30
2023-03-06T02:35:26.966Z,0.26
2023-03-06T02:38:13.695Z,0.21
2023-03-06T02:40:52.893Z,0.15
2023-03-06T02:43:26.308Z,0.10
2023-03-06T02:45:55.042Z,0.04
2023-03-06T02:48:23.547Z,0.00
2023-03-06T02:51:12.166Z,-0.04
2023-03-06T02:53:42.857Z,-0.10
2023-03-06T02:56:11.283Z,-0.15
2023-03-06T02:58:39.741Z,-0.22
2023-03-06T03:01:17.147Z,-0.27
2023-03-06T03:04:28.742Z,-0.33
2023-03-06T03:06:58.269Z,-0.40
2023-03-06T03:09:26.889Z,-0.46
2023-03-06T03:11:55.293Z,-0.52
2023-03-06T03:14:24.956Z,-0.58
2023-03-06T03:17:55.206Z,-0.63
2023-03-06T03:20:38.145Z,-0.71
2023-03-06T03:23:48.679Z,-0.78
2023-03-06T03:27:01.998Z,-0.87
2023-03-06T03:29:30.538Z,-1.00
2023-03-06T03:32:20.152Z,-1.06
2023-03-06T03:35:28.926Z,-1.15
2023-03-06T03:38:01.135Z,-1.23
2023-03-06T03:40:29.826Z,-1.29
2023-03-06T03:42:59.990Z,-1.34
2023-03-06T03:45:29.085Z,-1.41
2023-03-06T03:48:18.111Z,-1.46
2023-03-06T03:50:46.682Z,-1.52
2023-03-06T03:53:24.086Z,-1.58
2023-03-06T03:55:52.846Z,-1.64
2023-03-06T03:58:21.625Z,-1.71
2023-03-06T04:00:50.600Z,-1.80
2023-03-06T04:03:28.673Z,-1.86
2023-03-06T04:05:58.196Z,-1.93
2023-03-06T04:08:27.226Z,-2.00
2023-03-06T04:11:56.082Z,-2.06
2023-03-06T04:14:24.583Z,-2.14
2023-03-06T04:16:53.053Z,-2.21
2023-03-06T04:19:21.610Z,-2.26
2023-03-06T04:21:50.726Z,-2.31
2023-03-06T04:24:20.062Z,-2.35
2023-03-06T04:26:49.071Z,-2.36
2023-03-06T04:29:17.759Z,-2.38
2023-03-06T04:31:46.679Z,-2.41
2023-03-06T04:34:55.769Z,-2.42
2023-03-06T04:37:26.384Z,-2.45
2023-03-06T04:40:04.586Z,-2.50
2023-03-06T04:42:33.275Z,-2.52
2023-03-06T04:45:04.707Z,-2.57
2023-03-06T04:47:35.935Z,-2.60
2023-03-06T04:50:05.360Z,-2.64
2023-03-06T04:52:33.792Z,-2.70
2023-03-06T04:55:11.802Z,-2.71
2023-03-06T04:58:00.499Z,-2.76
2023-03-06T05:00:34.126Z,-2.80
2023-03-06T05:03:43.476Z,-2.85
2023-03-06T05:06:32.335Z,-2.88
2023-03-06T05:09:00.982Z,-2.91
2023-03-06T05:11:29.510Z,-2.93
2023-03-06T05:14:38.044Z,-2.94
2023-03-06T05:17:06.561Z,-2.94
2023-03-06T05:19:37.887Z,-2.93
2023-03-06T05:22:06.304Z,-2.91
2023-03-06T05:25:35.099Z,-2.89
2023-03-06T05:28:03.643Z,-2.86
2023-03-06T05:31:37.598Z,-2.82
2023-03-06T05:34:08.300Z,-2.79
2023-03-06T05:36:47.545Z,-2.76
2023-03-06T05:39:36.312Z,-2.75
2023-03-06T05:42:26.380Z,-2.73
2023-03-06T05:44:56.090Z,-2.72
2023-03-06T05:47:24.742Z,-2.71
2023-03-06T05:49:53.050Z,-2.69
2023-03-06T05:52:27.352Z,-2.67
2023-03-06T05:56:17.809Z,-2.64
2023-03-06T06:03:33.750Z,-2.53
2023-03-06T06:06:24.667Z,-2.47
2023-03-06T06:12:29.729Z,-2.23
2023-03-06T06:14:58.336Z,-2.11
2023-03-06T06:17:40.251Z,-2.01
2023-03-06T06:20:09.686Z,-1.90
2023-03-06T06:22:38.398Z,-1.77
2023-03-06T06:25:07.491Z,-1.58
2023-03-06T06:27:35.895Z,-1.34
2023-03-06T06:30:06.171Z,-1.11
2023-03-06T06:32:34.808Z,-0.86
2023-03-06T06:35:03.949Z,-0.61
2023-03-06T06:37:40.586Z,-0.34
2023-03-06T06:40:09.578Z,-0.06
2023-03-06T06:42:40.130Z,0.20
2023-03-06T06:45:10.749Z,0.41
2023-03-06T06:47:54.554Z,0.66
2023-03-06T06:50:23.287Z,0.97
2023-03-06T06:53:38.464Z,1.27
2023-03-06T06:56:10.160Z,1.62
2023-03-06T06:58:38.794Z,1.93
2023-03-06T07:01:28.356Z,2.27
2023-03-06T07:04:49.104Z,2.63
2023-03-06T07:07:27.923Z,3.02
2023-03-06T07:14:29.955Z,3.75
2023-03-06T07:16:58.802Z,4.09
2023-03-06T07:19:31.946Z,4.39
2023-03-06T07:22:00.455Z,4.67
2023-03-06T07:24:29.076Z,4.95
2023-03-06T07:26:58.495Z,5.17
2023-03-06T07:29:35.720Z,5.34
2023-03-06T07:32:04.307Z,5.50
2023-03-06T07:34:32.682Z,5.66
2023-03-06T07:37:01.080Z,5.82
2023-03-06T07:39:30.449Z,5.92
2023-03-06T07:41:58.859Z,5.99
2023-03-06T07:44:27.987Z,6.05
2023-03-06T07:46:56.537Z,6.09
2023-03-06T07:49:24.983Z,6.14
2023-03-06T07:51:53.319Z,6.21
2023-03-06T07:54:21.649Z,6.27
2023-03-06T07:56:53.478Z,6.32
2023-03-06T07:59:22.158Z,6.44
2023-03-06T08:01:50.630Z,6.52
2023-03-06T08:04:30.271Z,6.56
2023-03-06T08:07:00.185Z,6.64
2023-03-06T08:09:28.692Z,6.67
2023-03-06T08:11:57.066Z,6.72
2023-03-06T08:14:25.350Z,6.79
2023-03-06T08:16:56.968Z,6.82
2023-03-06T08:19:25.252Z,6.86
2023-03-06T08:21:53.551Z,6.89
2023-03-06T08:24:21.858Z,7.06
2023-03-06T08:26:50.279Z,7.28
2023-03-06T08:29:18.680Z,7.35
2023-03-06T08:31:54.721Z,7.37
2023-03-06T08:34:41.184Z,7.42
2023-03-06T08:37:09.679Z,7.42
2023-03-06T08:39:38.148Z,7.51
2023-03-06T08:42:06.511Z,7.64
2023-03-06T08:44:35.427Z,7.78
2023-03-06T08:47:04.734Z,7.89
2023-03-06T08:49:40.701Z,8.05
2023-03-06T08:52:09.069Z,8.24
2023-03-06T08:54:37.540Z,8.38
2023-03-06T08:57:06.880Z,8.36
2023-03-06T08:59:36.916Z,8.30
2023-03-06T09:02:07.567Z,8.39
2023-03-06T09:04:36.043Z,8.53
2023-03-06T09:07:05.073Z,8.67
2023-03-06T09:09:33.485Z,8.81
2023-03-06T09:12:01.842Z,8.87
2023-03-06T09:14:31.356Z,8.88
2023-03-06T09:17:00.551Z,8.98
2023-03-06T09:19:39.609Z,9.25
2023-03-06T09:22:11.007Z,9.52
2023-03-06T09:24:39.486Z,9.68
2023-03-06T09:27:07.777Z,9.73
2023-03-06T09:29:35.951Z,9.86
2023-03-06T09:32:04.535Z,10.05
2023-03-06T09:34:33.137Z,10.23
2023-03-06T09:37:05.037Z,10.29
2023-03-06T09:39:41.221Z,10.25
2023-03-06T09:42:16.445Z,10.10
2023-03-06T09:44:50.595Z,10.01
2023-03-06T09:47:49.871Z,9.84
2023-03-06T09:50:37.126Z,9.63
2023-03-06T09:53:31.730Z,9.48
2023-03-06T09:56:20.579Z,9.36
2023-03-06T09:59:03.991Z,9.31
2023-03-06T10:01:37.723Z,9.30
2023-03-06T10:04:29.278Z,9.36
2023-03-06T10:07:13.543Z,9.40
2023-03-06T10:09:45.430Z,9.46
2023-03-06T10:12:35.637Z,9.52
2023-03-06T10:15:41.633Z,9.75
2023-03-06T10:18:20.187Z,9.93
2023-03-06T10:21:07.418Z,9.95
2023-03-06T10:28:04.509Z,10.30
2023-03-06T10:31:28.807Z,10.53
2023-03-06T10:34:38.527Z,10.61
2023-03-06T10:37:22.052Z,10.70
2023-03-06T10:39:57.652Z,10.73
2023-03-06T10:42:27.025Z,10.68
2023-03-06T10:45:16.321Z,10.65
2023-03-06T10:47:44.988Z,10.73
2023-03-06T10:50:25.527Z,10.76
2023-03-06T10:53:05.172Z,10.82
2023-03-06T10:55:35.818Z,10.88
2023-03-06T10:58:30.621Z,10.88
2023-03-06T11:01:17.667Z,10.81
2023-03-06T11:03:46.345Z,10.89
2023-03-06T11:06:38.107Z,11.09
2023-03-06T11:09:17.170Z,11.33
2023-03-06T11:11:48.206Z,11.55
2023-03-06T11:14:23.171Z,11.68
2023-03-06T11:16:53.891Z,11.56
2023-03-06T11:19:29.829Z,11.42
2023-03-06T11:22:18.139Z,11.16
2023-03-06T11:24:50.627Z,10.84
2023-03-06T11:27:34.693Z,10.71
2023-03-06T11:30:09.649Z,10.68
2023-03-06T11:32:52.557Z,10.70
2023-03-06T11:35:22.513Z,10.82
2023-03-06T11:37:59.590Z,10.95
2023-03-06T11:40:58.645Z,11.12
2023-03-06T11:43:48.833Z,11.35
2023-03-06T11:46:28.653Z,11.45
2023-03-06T11:49:15.575Z,11.47
2023-03-06T11:51:52.157Z,11.46
2023-03-06T11:54:20.396Z,11.50
2023-03-06T11:57:00.367Z,11.63
2023-03-06T11:59:47.368Z,11.80
2023-03-06T12:02:46.783Z,12.03
2023-03-06T12:05:28.370Z,12.23
2023-03-06T12:08:13.109Z,12.23
2023-03-06T12:10:51.741Z,12.21
2023-03-06T12:13:26.109Z,12.38
2023-03-06T12:16:08.453Z,12.46
2023-03-06T12:19:03.110Z,12.35
2023-03-06T12:22:01.696Z,12.16
2023-03-06T12:24:51.355Z,11.93
2023-03-06T12:27:33.851Z,11.78
2023-03-06T12:30:26.262Z,11.75
2023-03-06T12:33:15.280Z,11.93
2023-03-06T12:36:14.422Z,12.12
2023-03-06T12:39:05.813Z,12.11
2023-03-06T12:41:37.008Z,11.99
2023-03-06T12:44:33.192Z,11.83
2023-03-06T12:47:10.495Z,11.80
2023-03-06T12:49:51.831Z,11.79
2023-03-06T12:52:31.419Z,11.82
2023-03-06T12:55:01.829Z,11.78
2023-03-06T12:57:30.466Z,11.72
2023-03-06T12:59:58.641Z,11.68
2023-03-06T13:02:51.647Z,11.67
2023-03-06T13:05:30.978Z,11.59
2023-03-06T13:08:21.995Z,11.53
2023-03-06T13:11:27.978Z,11.46
2023-03-06T13:14:03.928Z,11.43
2023-03-06T13:16:34.694Z,11.36
2023-03-06T13:19:33.402Z,11.22
2023-03-06T13:22:27.936Z,11.21
2023-03-06T13:25:21.170Z,11.23
2023-03-06T13:27:52.420Z,11.19
2023-03-06T13:30:39.041Z,11.03
2023-03-06T13:33:37.154Z,10.83
2023-03-06T13:36:20.755Z,10.75
2023-03-06T13:38:48.848Z,10.69
2023-03-06T13:41:23.017Z,10.66
2023-03-06T13:43:54.529Z,10.61
2023-03-06T13:46:35.858Z,10.55
2023-03-06T13:49:13.028Z,10.49
2023-03-06T13:51:49.928Z,10.48
2023-03-06T13:54:36.229Z,10.46
2023-03-06T13:57:28.771Z,10.42
2023-03-06T14:00:15.734Z,10.32
2023-03-06T14:03:18.919Z,10.14
2023-03-06T14:05:49.698Z,10.04
2023-03-06T14:08:30.466Z,10.02
2023-03-06T14:11:22.463Z,10.04
2023-03-06T14:13:56.959Z,10.03
2023-03-06T14:16:47.464Z,9.98
2023-03-06T14:19:19.387Z,9.93
2023-03-06T14:21:49.234Z,9.87
2023-03-06T14:24:20.323Z,9.82
2023-03-06T14:26:51.402Z,9.77
2023-03-06T14:29:25.100Z,9.75
2023-03-06T14:31:58.636Z,9.67
2023-03-06T14:34:30.759Z,9.59
2023-03-06T14:37:05.673Z,9.57
2023-03-06T14:39:46.744Z,9.55
2023-03-06T14:42:21.392Z,9.53
2023-03-06T14:45:01.468Z,9.51
2023-03-06T14:47:32.318Z,9.44
2023-03-06T14:50:19.543Z,9.31
2023-03-06T14:52:58.966Z,9.14
2023-03-06T14:55:29.817Z,9.01
2023-03-06T14:58:22.811Z,8.91
2023-03-06T15:00:54.864Z,8.80
2023-03-06T15:03:35.345Z,8.71
2023-03-06T15:06:06.729Z,8.66
2023-03-06T15:08:39.372Z,8.62
2023-03-06T15:11:07.953Z,8.57
2023-03-06T15:13:36.158Z,8.51
2023-03-06T15:16:13.266Z,8.42
2023-03-06T15:19:03.012Z,8.31
2023-03-06T15:21:38.066Z,8.20
2023-03-06T15:24:42.048Z,8.09
2023-03-06T15:27:18.165Z,7.96
2023-03-06T15:29:46.565Z,7.87
2023-03-06T15:32:42.570Z,7.79
2023-03-06T15:35:28.915Z,7.69
2023-03-06T15:37:58.207Z,7.61
2023-03-06T15:40:30.845Z,7.54
2023-03-06T15:43:00.540Z,7.47
2023-03-06T15:45:30.262Z,7.39
2023-03-06T15:48:00.434Z,7.32
2023-03-06T15:50:30.292Z,7.25
2023-03-06T15:52:58.360Z,7.17
2023-03-06T15:55:26.549Z,7.11
2023-03-06T15:57:59.963Z,7.03
2023-03-06T16:00:31.476Z,6.96
2023-03-06T16:03:00.705Z,6.90
2023-03-06T16:05:29.601Z,6.82
2023-03-06T16:07:58.286Z,6.74
2023-03-06T16:10:30.663Z,6.68
2023-03-06T16:13:09.771Z,6.61
2023-03-06T16:15:47.062Z,6.54
2023-03-06T16:18:18.373Z,6.47
2023-03-06T16:20:47.107Z,6.40
2023-03-06T16:23:16.651Z,6.33
2023-03-06T16:25:49.120Z,6.27
2023-03-06T16:28:17.837Z,6.20
2023-03-06T16:30:46.191Z,6.14
2023-03-06T16:33:14.907Z,6.07
2023-03-06T16:35:46.566Z,5.98
2023-03-06T16:38:15.909Z,5.93
2023-03-06T16:40:44.170Z,5.86
2023-03-06T16:43:13.697Z,5.78
2023-03-06T16:45:42.711Z,5.71
2023-03-06T16:48:16.070Z,5.64
2023-03-06T16:50:44.975Z,5.56
2023-03-06T16:53:13.544Z,5.49
2023-03-06T16:55:42.034Z,5.41
2023-03-06T16:58:10.268Z,5.34
2023-03-06T17:00:38.648Z,5.28
2023-03-06T17:03:07.464Z,5.20
2023-03-06T17:05:38.681Z,5.13
2023-03-06T17:08:06.919Z,5.06
2023-03-06T17:10:35.969Z,4.98
2023-03-06T17:13:05.424Z,4.91
2023-03-06T17:15:33.752Z,4.84
2023-03-06T17:18:02.313Z,4.78
2023-03-06T17:20:30.470Z,4.71
2023-03-06T17:22:58.782Z,4.64
2023-03-06T17:25:26.860Z,4.56
2023-03-06T17:27:55.187Z,4.49
2023-03-06T17:30:23.575Z,4.40
2023-03-06T17:32:53.378Z,4.33
2023-03-06T17:35:21.470Z,4.26
2023-03-06T17:37:49.946Z,4.18
2023-03-06T17:40:18.351Z,4.11
2023-03-06T17:42:46.508Z,4.05
2023-03-06T17:45:14.836Z,3.99
2023-03-06T17:47:43.784Z,3.93
2023-03-06T17:50:12.215Z,3.88
2023-03-06T17:52:40.427Z,3.83
2023-03-06T17:55:09.089Z,3.76
2023-03-06T17:57:37.777Z,3.70
2023-03-06T18:00:07.012Z,3.66
2023-03-06T18:02:40.529Z,3.60
2023-03-06T18:05:09.544Z,3.56
2023-03-06T18:07:38.224Z,3.51
2023-03-06T18:10:07.001Z,3.46
2023-03-06T18:12:35.305Z,3.42
2023-03-06T18:15:04.145Z,3.38
2023-03-06T18:17:32.408Z,3.36
2023-03-06T18:20:00.549Z,3.32
2023-03-06T18:22:28.916Z,3.29
2023-03-06T18:24:57.029Z,3.25
2023-03-06T18:27:25.149Z,3.22
2023-03-06T18:29:55.688Z,3.19
2023-03-06T18:32:24.067Z,3.15
2023-03-06T18:34:52.362Z,3.12
2023-03-06T18:37:21.058Z,3.10
2023-03-06T18:39:49.563Z,3.08
2023-03-06T18:42:18.525Z,3.06
2023-03-06T18:44:48.228Z,3.05
2023-03-06T18:47:16.796Z,3.05
2023-03-06T18:49:46.030Z,3.05
2023-03-06T18:52:14.596Z,3.05
2023-03-06T18:54:42.930Z,3.05
2023-03-06T18:57:11.480Z,3.05
2023-03-06T18:59:39.893Z,3.04
2023-03-06T19:02:10.320Z,3.03
2023-03-06T19:04:38.725Z,3.02
2023-03-06T19:07:06.968Z,3.01
2023-03-06T19:09:35.252Z,3.01
2023-03-06T19:12:04.819Z,3.00
2023-03-06T19:14:33.194Z,3.00
2023-03-06T19:17:02.092Z,2.99
2023-03-06T19:19:30.316Z,2.98
2023-03-06T19:21:58.749Z,2.98
2023-03-06T19:24:27.266Z,2.98
2023-03-06T19:26:55.430Z,2.97
2023-03-06T19:29:23.693Z,2.97
2023-03-06T19:31:52.442Z,2.97
2023-03-06T19:34:20.828Z,2.96
2023-03-06T19:36:50.476Z,2.96
2023-03-06T19:39:18.782Z,2.96
2023-03-06T19:41:47.986Z,2.97
2023-03-06T19:44:16.936Z,2.98
2023-03-06T19:46:45.971Z,2.99
2023-03-06T19:49:18.044Z,2.99
2023-03-06T19:51:46.365Z,2.99
2023-03-06T19:54:14.677Z,2.99
2023-03-06T19:56:43.004Z,2.99
2023-03-06T19:59:11.174Z,2.97
2023-03-06T20:01:42.317Z,2.95
2023-03-06T20:04:10.806Z,2.93
2023-03-06T20:06:39.424Z,2.91
2023-03-06T20:09:09.304Z,2.88
2023-03-06T20:11:38.917Z,2.84
2023-03-06T20:14:08.927Z,2.80
2023-03-06T20:16:37.388Z,2.77
2023-03-06T20:19:06.670Z,2.74
2023-03-06T20:21:37.691Z,2.72
2023-03-06T20:24:08.079Z,2.69
2023-03-06T20:26:38.115Z,2.67
2023-03-06T20:29:06.586Z,2.66
2023-03-06T20:31:34.782Z,2.63
2023-03-06T20:34:04.115Z,2.60
2023-03-06T20:36:40.475Z,2.58
2023-03-06T20:39:13.255Z,2.53
2023-03-06T20:41:42.417Z,2.50
2023-03-06T20:44:15.083Z,2.46
2023-03-06T20:46:43.550Z,2.44
2023-03-06T20:49:13.499Z,2.43
2023-03-06T20:51:42.022Z,2.43
2023-03-06T20:54:13.233Z,2.42
2023-03-06T20:56:42.678Z,2.40
2023-03-06T20:59:12.513Z,2.38
2023-03-06T21:01:43.144Z,2.36
2023-03-06T21:04:16.077Z,2.34
2023-03-06T21:06:47.116Z,2.33
2023-03-06T21:09:17.460Z,2.33
2023-03-06T21:11:46.567Z,2.34
2023-03-06T21:14:15.707Z,2.35
2023-03-06T21:16:44.519Z,2.34
2023-03-06T21:19:12.972Z,2.33
2023-03-06T21:21:41.266Z,2.32
2023-03-06T21:24:09.512Z,2.31
2023-03-06T21:26:37.870Z,2.29
2023-03-06T21:29:06.206Z,2.26
2023-03-06T21:31:34.569Z,2.26
2023-03-06T21:34:05.065Z,2.25
2023-03-06T21:36:34.202Z,2.24
2023-03-06T21:39:06.216Z,2.24
2023-03-06T21:41:34.632Z,2.23
2023-03-06T21:44:05.175Z,2.23
2023-03-06T21:46:34.048Z,2.23
2023-03-06T21:49:04.783Z,2.24
2023-03-06T21:51:33.478Z,2.27
2023-03-06T21:54:02.993Z,2.29
2023-03-06T21:56:33.510Z,2.32
2023-03-06T21:59:02.078Z,2.35
2023-03-06T22:01:30.737Z,2.38
2023-03-06T22:04:00.228Z,2.41
2023-03-06T22:06:30.259Z,2.43
2023-03-06T22:09:00.511Z,2.46
2023-03-06T22:11:31.474Z,2.48
2023-03-06T22:14:00.052Z,2.50
2023-03-06T22:16:28.471Z,2.50
2023-03-06T22:18:56.946Z,2.51
2023-03-06T22:21:26.034Z,2.52
2023-03-06T22:23:58.648Z,2.53
2023-03-06T22:26:28.714Z,2.56
2023-03-06T22:28:57.549Z,2.60
2023-03-06T22:31:28.750Z,2.63
2023-03-06T22:33:59.441Z,2.66
2023-03-06T22:36:30.762Z,2.69
2023-03-06T22:39:01.197Z,2.74
2023-03-06T22:41:29.495Z,2.76
2023-03-06T22:43:59.190Z,2.77
2023-03-06T22:46:27.953Z,2.77
2023-03-06T22:48:57.573Z,2.78
2023-03-06T22:51:27.092Z,2.79
2023-03-06T22:53:55.580Z,2.80
2023-03-06T22:56:24.263Z,2.81
2023-03-06T22:58:52.434Z,2.82
2023-03-06T23:01:23.575Z,2.83
2023-03-06T23:03:54.790Z,2.84
2023-03-06T23:06:30.449Z,2.85
2023-03-06T23:09:04.619Z,2.87
2023-03-06T23:11:34.462Z,2.88
2023-03-06T23:14:21.358Z,2.90
2023-03-06T23:17:09.325Z,2.90
2023-03-06T23:19:56.446Z,2.92
2023-03-06T23:22:43.511Z,2.94
2023-03-06T23:25:30.377Z,2.96
2023-03-06T23:27:58.531Z,2.97
2023-03-06T23:30:26.745Z,2.99
2023-03-06T23:32:54.906Z,3.01
2023-03-06T23:35:23.134Z,3.03
2023-03-06T23:37:51.757Z,3.04
2023-03-06T23:40:20.007Z,3.05
2023-03-06T23:42:48.002Z,3.06
2023-03-06T23:45:16.339Z,3.07
2023-03-06T23:47:44.437Z,3.09
2023-03-06T23:50:12.709Z,3.10
2023-03-06T23:52:40.826Z,3.13
2023-03-06T23:55:09.221Z,3.16
2023-03-06T23:57:37.914Z,3.21
